Time;durP1;ratioP1;P1;durP2;ratioP2;P2;SDS_P1;SDS_P2;PMS_P1;PMS_P2;Temp;Humidity;BMP_temperature;BMP_pressure;BME280_temperature;BME280_humidity;BME280_pressure;Samples;Min_cycle;Max_cycle;Signal;HPM_P1;HPM_P2
2021/09/02 00:01:38;;;;;;;6.13;3.65;;;19.00;75.40;;;;;;5095667;28;20411;-69
2021/09/02 00:04:03;;;;;;;7.90;4.32;;;19.00;75.40;;;;;;5096445;28;20050;-69
2021/09/02 00:06:29;;;;;;;10.07;4.65;;;19.00;75.40;;;;;;5095671;28;20046;-69
2021/09/02 00:08:55;;;;;;;7.47;4.70;;;19.00;75.40;;;;;;5095949;28;20040;-69
2021/09/02 00:11:21;;;;;;;6.57;4.28;;;19.00;75.50;;;;;;5095661;28;20036;-69
2021/09/02 00:13:46;;;;;;;7.05;4.43;;;19.00;75.50;;;;;;5094954;28;20048;-70
2021/09/02 00:16:12;;;;;;;6.97;4.47;;;19.00;75.50;;;;;;5095848;28;20079;-69
2021/09/02 00:18:38;;;;;;;7.00;4.25;;;19.00;75.50;;;;;;5095810;28;20427;-69
2021/09/02 00:21:04;;;;;;;7.20;3.85;;;19.00;75.50;;;;;;5095840;28;20488;-70
2021/09/02 00:23:29;;;;;;;8.50;4.55;;;19.00;75.60;;;;;;5095290;28;20445;-69
2021/09/02 00:25:55;;;;;;;10.50;4.82;;;19.00;75.50;;;;;;5095293;28;20339;-69
2021/09/02 00:28:22;;;;;;;10.40;5.38;;;19.00;75.50;;;;;;5077715;28;20129;-69
2021/09/02 00:30:48;;;;;;;11.00;5.57;;;19.00;75.40;;;;;;5095157;28;20116;-69
2021/09/02 00:33:18;;;;;;;8.52;5.18;;;19.00;75.50;;;;;;5095259;28;20126;-69
2021/09/02 00:35:47;;;;;;;8.23;5.10;;;19.00;75.50;;;;;;5095613;28;20047;-69
2021/09/02 00:38:13;;;;;;;9.93;4.88;;;19.00;75.40;;;;;;5095474;28;20039;-69
2021/09/02 00:40:39;;;;;;;8.43;5.40;;;19.00;75.50;;;;;;5095740;28;20050;-69
2021/09/02 00:43:05;;;;;;;9.35;5.45;;;19.00;75.60;;;;;;5094540;28;20044;-69
2021/09/02 00:45:32;;;;;;;7.80;4.60;;;19.00;75.50;;;;;;5095469;28;20338;-69
2021/09/02 00:47:58;;;;;;;11.10;5.18;;;19.00;75.50;;;;;;5095791;28;20349;-69
2021/09/02 00:50:24;;;;;;;8.73;5.03;;;19.00;75.50;;;;;;5077751;28;20062;-69
2021/09/02 00:52:50;;;;;;;9.38;5.10;;;19.00;75.50;;;;;;5094940;28;20040;-69
2021/09/02 00:55:16;;;;;;;8.90;5.25;;;19.00;75.50;;;;;;5095131;28;20070;-69
2021/09/02 00:57:42;;;;;;;8.30;5.43;;;19.00;75.60;;;;;;5077532;28;20044;-69
2021/09/02 01:00:12;;;;;;;9.77;5.40;;;18.90;75.50;;;;;;5094769;28;20040;-69
2021/09/02 01:02:40;;;;;;;7.50;5.80;;;19.00;75.50;;;;;;5094289;28;20530;-69
2021/09/02 01:05:06;;;;;;;8.98;5.63;;;19.00;75.50;;;;;;5095104;28;20047;-69
2021/09/02 01:07:32;;;;;;;10.25;5.32;;;19.00;75.50;;;;;;5095055;28;20044;-69
2021/09/02 01:10:00;;;;;;;10.00;6.22;;;19.00;75.60;;;;;;5094963;28;20036;-69
2021/09/02 01:12:31;;;;;;;9.05;5.65;;;19.00;75.50;;;;;;5094971;28;20040;-69
2021/09/02 01:14:59;;;;;;;11.88;6.40;;;19.00;75.50;;;;;;5094949;28;20465;-69
2021/09/02 01:17:25;;;;;;;9.40;5.65;;;19.00;75.50;;;;;;5095417;28;20119;-69
2021/09/02 01:19:55;;;;;;;9.57;5.68;;;19.00;75.50;;;;;;5077654;28;20068;-69
2021/09/02 01:22:27;;;;;;;10.07;5.80;;;19.00;75.50;;;;;;5094512;28;20048;-69
2021/09/02 01:24:55;;;;;;;10.73;6.03;;;19.00;75.60;;;;;;5095005;28;20044;-69
2021/09/02 01:27:23;;;;;;;10.88;6.15;;;19.00;75.60;;;;;;5099060;28;20040;-68
2021/09/02 01:30:02;;;;;;;10.63;6.43;;;18.90;76.10;;;;;;5098987;28;20040;-69
2021/09/02 01:32:32;;;;;;;11.13;6.38;;;19.00;75.50;;;;;;5098477;28;20039;-69
2021/09/02 01:34:59;;;;;;;11.57;6.28;;;18.90;75.60;;;;;;5098359;28;20040;-69
2021/09/02 01:37:26;;;;;;;10.30;6.53;;;18.90;75.60;;;;;;5099434;28;20039;-69
2021/09/02 01:39:52;;;;;;;11.07;6.40;;;18.90;75.60;;;;;;5098903;28;20047;-69
2021/09/02 01:42:19;;;;;;;10.50;6.10;;;19.00;75.60;;;;;;5077086;28;20052;-69
2021/09/02 01:44:45;;;;;;;10.50;6.50;;;19.00;75.60;;;;;;5078185;28;20427;-69
2021/09/02 01:47:23;;;;;;;8.70;5.90;;;18.90;75.60;;;;;;5077288;28;20408;-69
2021/09/02 01:49:49;;;;;;;12.10;7.43;;;19.00;75.50;;;;;;5078016;28;20420;-69
2021/09/02 01:52:15;;;;;;;12.05;7.20;;;19.00;75.60;;;;;;5084002;28;20051;-69
2021/09/02 01:54:41;;;;;;;11.18;7.00;;;19.00;75.60;;;;;;5098484;28;20035;-69
2021/09/02 01:57:08;;;;;;;13.43;7.72;;;19.00;75.60;;;;;;5098173;28;20109;-70
2021/09/02 01:59:33;;;;;;;12.48;7.10;;;19.00;75.60;;;;;;5098110;28;20036;-69
2021/09/02 02:01:59;;;;;;;10.43;6.20;;;18.90;75.60;;;;;;5097832;28;20047;-70
2021/09/02 02:04:25;;;;;;;10.75;7.38;;;18.90;75.50;;;;;;5080830;28;20048;-69
2021/09/02 02:06:51;;;;;;;13.52;7.70;;;19.00;75.60;;;;;;5098138;28;20553;-69
2021/09/02 02:09:16;;;;;;;12.68;7.45;;;19.00;75.60;;;;;;5097915;28;20117;-69
2021/09/02 02:11:42;;;;;;;12.52;7.32;;;18.90;75.50;;;;;;5097993;28;20032;-69
2021/09/02 02:14:08;;;;;;;13.02;8.35;;;19.00;75.50;;;;;;5098697;28;20085;-69
2021/09/02 02:16:33;;;;;;;13.10;8.18;;;18.90;75.50;;;;;;5098097;28;20428;-69
2021/09/02 02:18:59;;;;;;;13.25;8.20;;;19.00;75.60;;;;;;5097724;28;20035;-69
2021/09/02 02:21:25;;;;;;;13.07;7.68;;;18.90;75.40;;;;;;5097270;28;20097;-69
2021/09/02 02:23:50;;;;;;;10.98;7.88;;;19.00;75.50;;;;;;5097838;28;20036;-69
2021/09/02 02:26:16;;;;;;;11.77;8.82;;;19.00;75.50;;;;;;5097831;28;20347;-69
2021/09/02 02:28:42;;;;;;;13.30;7.88;;;19.00;75.40;;;;;;5097773;28;20092;-69
2021/09/02 02:31:07;;;;;;;13.43;8.70;;;19.00;75.50;;;;;;5097301;28;20118;-69
2021/09/02 02:33:33;;;;;;;12.07;8.10;;;19.00;75.50;;;;;;5097287;28;20051;-69
2021/09/02 02:35:59;;;;;;;14.88;8.88;;;19.00;75.50;;;;;;5097144;28;20036;-69
2021/09/02 02:38:24;;;;;;;13.88;9.75;;;19.00;75.40;;;;;;5097415;28;20079;-69
2021/09/02 02:40:50;;;;;;;12.88;8.60;;;19.00;75.30;;;;;;5097676;28;20079;-69
2021/09/02 02:43:16;;;;;;;11.90;8.60;;;19.00;75.40;;;;;;5096704;28;20085;-70
2021/09/02 02:45:42;;;;;;;15.63;9.10;;;18.90;75.40;;;;;;5097603;28;20180;-69
2021/09/02 02:48:07;;;;;;;13.25;8.73;;;19.00;75.50;;;;;;5097012;28;20047;-69
2021/09/02 02:50:33;;;;;;;14.70;8.77;;;19.00;75.50;;;;;;5097348;28;20044;-69
2021/09/02 02:52:59;;;;;;;10.52;8.00;;;19.00;75.50;;;;;;5096656;28;20047;-69
2021/09/02 02:55:25;;;;;;;11.93;8.20;;;19.00;75.40;;;;;;5097428;28;20044;-69
2021/09/02 02:57:53;;;;;;;13.10;8.25;;;18.90;75.40;;;;;;5097047;28;20089;-71
2021/09/02 03:00:19;;;;;;;13.82;8.70;;;19.00;75.50;;;;;;5096661;28;20051;-69
2021/09/02 03:02:45;;;;;;;13.07;8.32;;;18.90;75.40;;;;;;5096658;28;20119;-70
2021/09/02 03:05:10;;;;;;;10.60;7.47;;;19.00;75.40;;;;;;5096970;28;20043;-69
2021/09/02 03:07:36;;;;;;;13.50;7.68;;;19.00;75.40;;;;;;5097008;28;20046;-70
2021/09/02 03:10:07;;;;;;;14.68;7.95;;;18.90;75.30;;;;;;5079119;28;20032;-70
2021/09/02 03:12:34;;;;;;;11.27;7.47;;;19.00;76.00;;;;;;5096776;28;20073;-69
2021/09/02 03:15:01;;;;;;;12.63;8.20;;;18.90;75.40;;;;;;5096640;28;20050;-69
2021/09/02 03:17:26;;;;;;;10.95;7.47;;;19.00;75.40;;;;;;5079145;28;20048;-69
2021/09/02 03:19:53;;;;;;;12.32;8.20;;;18.90;75.30;;;;;;5096598;28;20040;-70
2021/09/02 03:22:19;;;;;;;12.57;7.05;;;19.00;75.40;;;;;;5096426;28;20039;-69
2021/09/02 03:24:45;;;;;;;11.65;7.53;;;19.00;76.00;;;;;;5096986;28;20108;-69
2021/09/02 03:27:11;;;;;;;10.68;7.53;;;18.90;75.30;;;;;;5078709;28;20153;-69
2021/09/02 03:29:37;;;;;;;11.15;7.22;;;18.90;75.30;;;;;;5096709;28;20058;-69
2021/09/02 03:32:03;;;;;;;11.57;7.32;;;18.90;75.30;;;;;;5096229;28;20455;-69
2021/09/02 03:34:28;;;;;;;15.43;7.97;;;18.90;75.20;;;;;;5078738;28;20089;-69
2021/09/02 03:36:55;;;;;;;10.63;6.68;;;18.90;75.20;;;;;;5096429;28;20052;-69
2021/09/02 03:39:21;;;;;;;11.05;6.97;;;18.90;75.20;;;;;;5096505;28;20044;-69
2021/09/02 03:41:47;;;;;;;14.50;6.75;;;18.90;75.10;;;;;;5096042;28;20113;-69
2021/09/02 03:44:14;;;;;;;11.10;7.40;;;18.80;75.10;;;;;;5095684;28;20048;-69
2021/09/02 03:46:39;;;;;;;15.38;7.13;;;18.80;75.10;;;;;;5096089;28;20101;-69
2021/09/02 03:49:06;;;;;;;12.85;6.55;;;18.80;75.20;;;;;;5095399;28;20036;-69
2021/09/02 03:51:32;;;;;;;10.55;6.57;;;18.80;75.10;;;;;;5095835;28;20071;-69
2021/09/02 03:53:58;;;;;;;10.10;6.00;;;18.80;75.10;;;;;;5096206;28;20071;-69
2021/09/02 03:56:23;;;;;;;10.50;6.53;;;18.90;75.30;;;;;;5095653;28;20047;-70
2021/09/02 03:58:51;;;;;;;9.90;6.88;;;18.90;75.20;;;;;;5095725;28;20044;-69
2021/09/02 04:01:17;;;;;;;11.52;6.53;;;18.90;75.20;;;;;;5095178;28;20109;-69
2021/09/02 04:03:42;;;;;;;12.82;6.43;;;18.90;75.20;;;;;;5078802;28;20056;-69
2021/09/02 04:06:08;;;;;;;10.20;6.40;;;18.90;75.10;;;;;;5095666;28;20112;-69
2021/09/02 04:08:34;;;;;;;9.60;6.57;;;18.90;75.10;;;;;;5078455;28;20304;-69
2021/09/02 04:11:00;;;;;;;11.20;6.20;;;18.90;75.00;;;;;;5095589;28;20233;-69
2021/09/02 04:13:25;;;;;;;10.32;5.88;;;18.90;74.90;;;;;;5073783;28;20040;-69
2021/09/02 04:15:51;;;;;;;10.25;5.93;;;18.80;74.80;;;;;;5075862;28;20040;-70
2021/09/02 04:18:17;;;;;;;10.68;6.20;;;18.80;74.90;;;;;;5076152;28;20100;-69
2021/09/02 04:20:43;;;;;;;9.90;5.20;;;18.90;75.00;;;;;;5075427;28;20492;-69
2021/09/02 04:23:09;;;;;;;8.38;5.32;;;18.90;74.90;;;;;;5090572;28;20055;-69
2021/09/02 04:25:34;;;;;;;9.48;5.90;;;18.90;74.90;;;;;;5095759;28;20048;-70
2021/09/02 04:28:00;;;;;;;8.82;5.20;;;18.90;75.00;;;;;;5095483;28;20108;-69
2021/09/02 04:30:26;;;;;;;9.18;5.25;;;18.80;74.80;;;;;;5095634;28;20062;-69
2021/09/02 04:32:52;;;;;;;8.77;5.15;;;18.80;74.80;;;;;;5095259;28;20431;-69
2021/09/02 04:35:18;;;;;;;9.00;4.97;;;18.80;74.70;;;;;;5095309;28;20443;-69
2021/09/02 04:37:46;;;;;;;9.93;5.88;;;18.80;74.90;;;;;;5095629;28;20105;-69
2021/09/02 04:40:14;;;;;;;8.70;5.65;;;18.80;74.90;;;;;;5095543;28;20059;-69
2021/09/02 04:42:40;;;;;;;10.05;5.70;;;18.80;74.90;;;;;;5094712;28;20111;-69
2021/09/02 04:45:07;;;;;;;9.05;5.38;;;18.80;74.80;;;;;;5095337;28;20044;-69
2021/09/02 04:47:32;;;;;;;8.48;5.00;;;18.80;74.90;;;;;;5095348;28;20040;-69
2021/09/02 04:49:59;;;;;;;11.63;5.45;;;18.80;74.80;;;;;;5095308;28;20040;-69
2021/09/02 04:52:25;;;;;;;9.27;5.25;;;18.80;74.90;;;;;;5095181;28;20364;-69
2021/09/02 04:54:51;;;;;;;8.35;4.50;;;18.80;74.90;;;;;;5094942;28;20036;-71
2021/09/02 04:57:19;;;;;;;9.70;5.43;;;18.80;74.80;;;;;;5095079;28;20119;-73
2021/09/02 04:59:46;;;;;;;10.50;5.00;;;18.80;74.90;;;;;;5096335;28;20036;-70
2021/09/02 05:02:12;;;;;;;12.70;5.70;;;18.80;74.70;;;;;;5099312;28;20173;-69
2021/09/02 05:04:38;;;;;;;10.10;5.13;;;18.80;74.60;;;;;;5100237;28;20131;-71
2021/09/02 05:07:04;;;;;;;9.50;5.35;;;18.80;74.40;;;;;;5099593;28;20119;-70
2021/09/02 05:09:30;;;;;;;9.45;5.15;;;18.80;74.80;;;;;;5098961;28;20046;-71
2021/09/02 05:11:56;;;;;;;8.13;5.05;;;18.80;75.00;;;;;;5097894;28;20040;-70
2021/09/02 05:14:21;;;;;;;10.23;5.00;;;18.70;74.90;;;;;;5077617;28;20123;-71
2021/09/02 05:16:49;;;;;;;12.70;5.13;;;18.80;74.60;;;;;;5085514;28;20040;-71
2021/09/02 05:19:18;;;;;;;13.45;4.57;;;18.80;73.60;;;;;;5091496;28;20051;-71
2021/09/02 05:21:44;;;;;;;12.25;4.60;;;18.90;73.20;;;;;;5097935;28;20044;-71
2021/09/02 05:24:09;;;;;;;11.60;4.97;;;18.80;73.00;;;;;;5098595;28;20356;-69
2021/09/02 05:26:36;;;;;;;15.30;4.78;;;18.80;72.90;;;;;;5098886;28;20482;-71
2021/09/02 05:29:02;;;;;;;13.35;5.35;;;18.80;73.00;;;;;;5081364;28;20044;-71
2021/09/02 05:31:28;;;;;;;11.50;4.93;;;18.70;73.10;;;;;;5098255;28;20055;-72
2021/09/02 05:33:53;;;;;;;12.00;5.15;;;18.70;73.90;;;;;;5098751;28;20043;-72
2021/09/02 05:36:20;;;;;;;11.23;4.57;;;18.70;74.00;;;;;;5080581;28;20097;-71
2021/09/02 05:38:45;;;;;;;10.73;4.72;;;18.70;74.30;;;;;;5079877;28;20444;-71
2021/09/02 05:41:11;;;;;;;11.52;4.43;;;18.80;74.50;;;;;;5098536;28;20051;-71
2021/09/02 05:43:37;;;;;;;10.38;4.88;;;18.80;74.60;;;;;;5098852;28;20339;-72
2021/09/02 05:46:03;;;;;;;12.18;4.65;;;18.70;74.70;;;;;;5098060;28;20127;-71
2021/09/02 05:48:29;;;;;;;12.07;4.82;;;18.80;74.80;;;;;;5098170;28;20036;-71
2021/09/02 05:50:55;;;;;;;11.55;4.50;;;18.80;74.70;;;;;;5077473;28;20116;-69
2021/09/02 05:53:22;;;;;;;12.10;5.13;;;18.80;74.70;;;;;;5078132;28;20047;-71
2021/09/02 05:55:50;;;;;;;12.57;5.05;;;18.90;74.80;;;;;;5082035;28;20431;-72
2021/09/02 05:58:16;;;;;;;9.88;5.03;;;18.90;74.50;;;;;;5098057;28;20079;-71
2021/09/02 06:00:42;;;;;;;11.02;4.45;;;18.90;74.30;;;;;;5097786;28;20188;-71
2021/09/02 06:03:08;;;;;;;13.80;5.45;;;18.90;74.10;;;;;;5097536;28;20091;-70
2021/09/02 06:05:33;;;;;;;8.95;4.57;;;18.90;74.00;;;;;;5097545;28;20048;-72
2021/09/02 06:07:59;;;;;;;14.52;5.85;;;18.90;74.00;;;;;;5097119;28;20111;-71
2021/09/02 06:10:25;;;;;;;10.55;4.97;;;18.90;74.00;;;;;;5079220;28;20431;-71
2021/09/02 06:12:51;;;;;;;11.15;5.05;;;18.90;73.90;;;;;;5097034;28;20043;-71
2021/09/02 06:15:17;;;;;;;12.88;5.63;;;18.90;74.00;;;;;;5096968;28;20040;-70
2021/09/02 06:17:43;;;;;;;10.48;5.65;;;18.90;74.10;;;;;;5075172;28;20046;-69
2021/09/02 06:20:10;;;;;;;12.02;5.22;;;18.90;74.10;;;;;;5093520;28;20119;-70
2021/09/02 06:22:36;;;;;;;10.98;5.38;;;18.90;74.20;;;;;;5094448;28;20417;-70
2021/09/02 06:25:02;;;;;;;10.48;5.85;;;19.00;73.70;;;;;;5095413;28;20135;-70
2021/09/02 06:27:28;;;;;;;15.63;6.13;;;18.90;73.30;;;;;;5097999;28;20036;-74
2021/09/02 06:29:54;;;;;;;12.77;6.40;;;18.80;73.10;;;;;;5097496;28;20106;-72
2021/09/02 06:32:19;;;;;;;13.70;6.05;;;18.80;73.00;;;;;;5097265;28;20040;-73
2021/09/02 06:34:45;;;;;;;14.20;6.05;;;18.70;73.00;;;;;;5094671;28;20058;-74
2021/09/02 06:37:12;;;;;;;12.38;5.57;;;18.70;73.00;;;;;;5096612;28;20101;-74
2021/09/02 06:39:37;;;;;;;13.95;6.15;;;18.60;73.00;;;;;;5097040;28;20050;-74
2021/09/02 06:42:09;;;;;;;14.70;5.80;;;18.60;73.40;;;;;;5097221;28;20039;-73
2021/09/02 06:44:35;;;;;;;17.20;6.47;;;18.60;73.70;;;;;;5071712;28;20124;-74
2021/09/02 06:47:01;;;;;;;10.88;5.57;;;18.50;74.00;;;;;;5064152;28;20380;-73
2021/09/02 06:49:27;;;;;;;11.18;6.13;;;18.50;74.30;;;;;;5076633;28;20040;-73
2021/09/02 06:51:53;;;;;;;14.32;6.43;;;18.50;74.50;;;;;;5076521;28;20036;-74
2021/09/02 06:54:20;;;;;;;14.93;5.53;;;18.50;74.70;;;;;;5076561;28;20052;-69
2021/09/02 06:56:46;;;;;;;13.50;5.47;;;18.60;74.80;;;;;;5068920;28;20394;-69
2021/09/02 06:59:12;;;;;;;10.80;5.65;;;18.60;74.90;;;;;;5069673;28;20048;-71
2021/09/02 07:01:38;;;;;;;29.25;6.47;;;18.60;74.90;;;;;;5067749;28;20105;-69
2021/09/02 07:04:04;;;;;;;16.85;6.05;;;18.70;75.00;;;;;;5075457;28;20040;-69
2021/09/02 07:06:29;;;;;;;11.68;5.30;;;18.80;75.00;;;;;;5075904;28;20028;-69
2021/09/02 07:08:55;;;;;;;13.88;5.40;;;18.80;75.00;;;;;;5076565;28;20047;-69
2021/09/02 07:11:21;;;;;;;11.02;5.05;;;18.90;74.80;;;;;;5076974;28;20046;-69
2021/09/02 07:13:47;;;;;;;14.35;5.53;;;19.00;74.60;;;;;;5075969;28;20052;-70
2021/09/02 07:16:12;;;;;;;15.60;5.15;;;19.00;74.30;;;;;;5076852;28;20335;-70
2021/09/02 07:18:38;;;;;;;12.90;4.88;;;19.10;74.20;;;;;;5076362;28;20523;-69
2021/09/02 07:21:04;;;;;;;14.07;4.95;;;19.20;74.00;;;;;;5075764;28;20313;-70
2021/09/02 07:23:29;;;;;;;10.80;5.07;;;19.20;73.80;;;;;;5075178;28;20101;-69
2021/09/02 07:25:55;;;;;;;11.82;4.40;;;19.20;73.70;;;;;;5076651;28;20443;-69
2021/09/02 07:28:21;;;;;;;10.02;4.93;;;19.20;73.50;;;;;;5076116;28;20055;-70
2021/09/02 07:30:47;;;;;;;9.25;4.82;;;19.30;73.40;;;;;;5076486;28;20041;-69
2021/09/02 07:33:13;;;;;;;16.70;5.10;;;19.30;73.20;;;;;;5075348;28;20094;-69
2021/09/02 07:35:39;;;;;;;8.65;5.10;;;19.40;73.30;;;;;;5075850;28;20080;-69
2021/09/02 07:38:08;;;;;;;14.25;5.30;;;19.40;73.20;;;;;;5076357;28;20431;-71
2021/09/02 07:40:35;;;;;;;11.32;4.60;;;19.40;73.10;;;;;;5076202;28;20048;-69
2021/09/02 07:43:00;;;;;;;11.57;4.70;;;19.40;73.10;;;;;;5082045;28;20444;-70
2021/09/02 07:45:26;;;;;;;12.98;5.43;;;19.50;73.20;;;;;;5096466;28;20047;-71
2021/09/02 07:47:52;;;;;;;15.18;4.70;;;19.50;73.20;;;;;;5078224;28;20389;-70
2021/09/02 07:50:17;;;;;;;10.90;5.30;;;19.50;73.30;;;;;;5096254;28;20109;-70
2021/09/02 07:52:43;;;;;;;10.82;4.80;;;19.50;73.30;;;;;;5079041;28;20083;-71
2021/09/02 07:55:11;;;;;;;10.20;5.45;;;19.50;73.30;;;;;;5078462;28;20401;-71
2021/09/02 07:57:42;;;;;;;9.82;4.95;;;19.50;73.20;;;;;;5095942;28;20127;-71
2021/09/02 08:00:08;;;;;;;13.20;5.93;;;19.50;73.20;;;;;;5095942;28;20044;-71
2021/09/02 08:02:34;;;;;;;11.05;5.25;;;19.50;73.20;;;;;;5078136;28;20105;-71
2021/09/02 08:05:00;;;;;;;12.45;5.15;;;19.50;73.20;;;;;;5095818;28;20036;-71
2021/09/02 08:07:25;;;;;;;14.43;5.40;;;19.50;73.20;;;;;;5096182;28;20054;-73
2021/09/02 08:09:51;;;;;;;8.45;5.10;;;19.50;73.30;;;;;;5096205;28;20044;-72
2021/09/02 08:12:17;;;;;;;12.30;5.55;;;19.50;73.20;;;;;;5095562;28;20035;-75
2021/09/02 08:14:42;;;;;;;17.23;5.28;;;19.50;73.20;;;;;;5078443;28;20074;-74
2021/09/02 08:17:08;;;;;;;14.95;5.53;;;19.50;73.00;;;;;;5095830;28;20079;-73
2021/09/02 08:19:34;;;;;;;10.93;5.38;;;19.50;72.40;;;;;;5095277;28;20479;-70
2021/09/02 08:22:00;;;;;;;12.23;5.80;;;19.50;72.30;;;;;;5077544;28;20123;-68
2021/09/02 08:24:25;;;;;;;11.98;5.35;;;19.50;72.30;;;;;;5095558;28;20043;-69
2021/09/02 08:26:51;;;;;;;9.63;5.68;;;19.50;72.30;;;;;;5095323;28;20097;-69
2021/09/02 08:29:17;;;;;;;11.43;6.57;;;19.50;72.20;;;;;;5095599;28;20040;-69
2021/09/02 08:31:43;;;;;;;14.57;6.38;;;19.50;72.10;;;;;;5095013;28;20040;-68
2021/09/02 08:34:08;;;;;;;12.25;5.82;;;19.50;71.90;;;;;;5077557;28;20075;-70
2021/09/02 08:36:34;;;;;;;13.20;6.32;;;19.40;71.80;;;;;;5095428;28;20050;-68
2021/09/02 08:39:00;;;;;;;15.75;6.30;;;19.50;71.60;;;;;;5095297;28;20036;-72
2021/09/02 08:41:26;;;;;;;11.43;5.82;;;19.50;71.40;;;;;;5095505;28;20072;-68
2021/09/02 08:43:53;;;;;;;11.48;6.60;;;19.50;71.20;;;;;;5095031;28;20062;-68
2021/09/02 08:46:20;;;;;;;12.25;5.80;;;19.50;71.30;;;;;;5094437;28;20040;-68
2021/09/02 08:48:48;;;;;;;10.30;5.93;;;19.50;71.30;;;;;;5077310;28;20095;-67
2021/09/02 08:51:15;;;;;;;10.00;6.13;;;19.50;71.30;;;;;;5095235;28;20040;-68
2021/09/02 08:53:42;;;;;;;10.52;5.70;;;19.50;71.40;;;;;;5077657;28;20043;-68
2021/09/02 08:56:09;;;;;;;12.63;6.45;;;19.50;71.40;;;;;;5095153;28;20084;-68
2021/09/02 08:58:34;;;;;;;11.57;6.47;;;19.50;71.30;;;;;;5095380;28;20040;-68
2021/09/02 09:01:00;;;;;;;11.43;6.20;;;19.50;71.30;;;;;;5095245;28;20058;-68
2021/09/02 09:03:26;;;;;;;11.38;6.47;;;19.50;71.40;;;;;;5094950;28;20070;-68
2021/09/02 09:05:57;;;;;;;13.18;7.30;;;19.50;71.50;;;;;;5095153;28;20336;-68
2021/09/02 09:08:36;;;;;;;10.30;5.93;;;19.50;71.50;;;;;;5095591;28;20503;-67
2021/09/02 09:11:24;;;;;;;10.63;6.50;;;19.50;71.40;;;;;;5095278;28;20085;-69
2021/09/02 09:14:12;;;;;;;16.77;5.88;;;19.50;71.40;;;;;;5094968;28;20044;-69
2021/09/02 09:16:57;;;;;;;9.75;6.20;;;19.50;71.30;;;;;;5095509;28;20335;-68
2021/09/02 09:19:49;;;;;;;11.93;6.80;;;19.50;71.40;;;;;;5095219;28;20090;-68
2021/09/02 09:22:15;;;;;;;12.30;6.35;;;19.50;71.40;;;;;;5094848;28;20091;-69
2021/09/02 09:24:44;;;;;;;9.48;6.50;;;19.50;71.40;;;;;;5095295;28;20044;-69
2021/09/02 09:27:10;;;;;;;11.98;6.57;;;19.50;71.40;;;;;;5094950;28;20048;-68
2021/09/02 09:29:36;;;;;;;11.55;6.20;;;19.50;71.40;;;;;;5095059;28;20525;-69
2021/09/02 09:32:20;;;;;;;12.73;6.80;;;19.50;71.30;;;;;;5077148;28;20123;-70
2021/09/02 09:34:48;;;;;;;;;;;19.50;71.30;;;;;;5095611;28;20390;-69
2021/09/02 09:37:13;;;;;;;10.07;6.20;;;19.50;71.40;;;;;;5076700;28;20220;-68
2021/09/02 09:39:39;;;;;;;12.23;6.32;;;19.50;71.40;;;;;;5094990;28;20054;-69
2021/09/02 09:42:06;;;;;;;10.73;6.72;;;19.50;71.40;;;;;;5094946;28;20044;-69
2021/09/02 09:44:32;;;;;;;9.90;5.93;;;19.50;71.30;;;;;;5095319;28;20048;-69
2021/09/02 09:47:10;;;;;;;9.90;6.50;;;19.50;71.20;;;;;;5096693;28;20127;-68
2021/09/02 09:49:55;;;;;;;10.50;6.07;;;19.50;71.30;;;;;;5098708;28;20039;-68
2021/09/02 09:52:26;;;;;;;12.05;7.03;;;19.50;71.40;;;;;;5098683;28;20044;-68
2021/09/02 09:55:04;;;;;;;10.23;6.50;;;19.50;71.50;;;;;;5098560;28;20044;-69
2021/09/02 09:57:31;;;;;;;10.15;6.35;;;19.50;71.40;;;;;;5080585;28;20126;-68
2021/09/02 10:00:04;;;;;;;8.63;6.32;;;19.40;71.30;;;;;;5097976;28;20504;-68
2021/09/02 10:02:30;;;;;;;7.67;6.40;;;19.50;71.30;;;;;;5098094;28;20040;-68
2021/09/02 10:04:56;;;;;;;9.75;6.60;;;19.50;71.50;;;;;;5080848;28;20059;-68
2021/09/02 10:07:22;;;;;;;11.85;6.72;;;19.40;71.40;;;;;;5081210;28;20428;-68
2021/09/02 10:09:52;;;;;;;10.48;6.57;;;19.40;71.40;;;;;;5098832;28;20039;-69
2021/09/02 10:12:19;;;;;;;10.20;6.13;;;19.40;71.40;;;;;;5097907;28;20043;-68
2021/09/02 10:14:45;;;;;;;9.30;6.55;;;19.50;71.40;;;;;;5097953;28;20355;-68
2021/09/02 10:17:10;;;;;;;9.70;6.32;;;19.40;71.30;;;;;;5098147;28;20309;-69
2021/09/02 10:19:37;;;;;;;11.43;6.43;;;19.40;71.30;;;;;;5098128;28;20131;-68
2021/09/02 10:22:04;;;;;;;9.77;5.85;;;19.40;71.20;;;;;;5097673;28;20427;-68
2021/09/02 10:24:41;;;;;;;12.57;6.35;;;19.50;71.20;;;;;;5097242;28;20468;-69
2021/09/02 10:27:34;;;;;;;8.98;6.13;;;19.50;71.20;;;;;;5097742;28;20115;-68
2021/09/02 10:30:00;;;;;;;12.30;6.53;;;19.50;71.30;;;;;;5096410;28;20044;-67
2021/09/02 10:32:28;;;;;;;10.68;6.43;;;19.50;71.40;;;;;;5098068;28;20342;-68
2021/09/02 10:35:12;;;;;;;12.32;6.53;;;19.50;71.50;;;;;;5096982;28;20370;-66
2021/09/02 10:37:41;;;;;;;14.52;6.90;;;19.50;71.50;;;;;;5097198;28;20052;-66
2021/09/02 10:40:16;;;;;;;15.07;7.15;;;19.50;71.50;;;;;;5097452;28;20044;-69
2021/09/02 10:42:44;;;;;;;10.73;6.75;;;19.50;71.20;;;;;;5097364;28;20411;-71
2021/09/02 10:45:26;;;;;;;12.18;6.75;;;19.50;71.20;;;;;;5097321;28;20355;-70
2021/09/02 10:47:52;;;;;;;9.77;6.63;;;19.50;71.30;;;;;;5096971;28;20128;-70
2021/09/02 10:50:21;;;;;;;12.60;7.28;;;19.50;71.30;;;;;;5097346;28;20048;-69
2021/09/02 10:52:48;;;;;;;10.15;6.35;;;19.50;71.40;;;;;;5097259;28;20051;-71
2021/09/02 10:55:37;;;;;;;11.60;6.50;;;19.50;71.40;;;;;;5096708;28;20063;-69
2021/09/02 10:58:04;;;;;;;12.60;6.20;;;19.50;71.70;;;;;;5078943;28;20044;-70
2021/09/02 11:00:35;;;;;;;12.30;6.25;;;19.50;71.80;;;;;;5093803;28;20473;-70
2021/09/02 11:03:18;;;;;;;11.57;6.10;;;19.50;72.30;;;;;;5096903;28;20040;-70
2021/09/02 11:05:52;;;;;;;8.95;5.50;;;19.60;72.30;;;;;;5096935;28;20451;-70
2021/09/02 11:08:31;;;;;;;10.18;5.95;;;19.60;72.30;;;;;;5096489;28;20058;-70
2021/09/02 11:11:13;;;;;;;12.15;6.38;;;19.60;72.40;;;;;;5096935;28;20055;-70
2021/09/02 11:13:44;;;;;;;10.65;5.43;;;19.60;72.20;;;;;;5096689;28;20035;-70
2021/09/02 11:16:17;;;;;;;10.23;6.65;;;19.60;72.90;;;;;;5097003;28;20093;-70
2021/09/02 11:18:46;;;;;;;14.13;6.30;;;19.60;72.40;;;;;;5096805;28;20044;-70
2021/09/02 11:21:17;;;;;;;11.38;5.70;;;19.60;72.40;;;;;;5097061;28;20043;-69
2021/09/02 11:23:45;;;;;;;9.93;6.25;;;19.60;72.30;;;;;;5096136;28;20031;-70
2021/09/02 11:26:38;;;;;;;13.50;5.90;;;19.60;72.40;;;;;;5096652;28;20058;-70
2021/09/02 11:29:08;;;;;;;8.82;5.60;;;19.70;72.40;;;;;;5078672;28;20048;-70
2021/09/02 11:31:35;;;;;;;11.13;5.75;;;19.70;72.30;;;;;;5078729;28;20079;-70
2021/09/02 11:34:02;;;;;;;10.98;5.53;;;19.60;72.30;;;;;;5096207;28;20051;-70
2021/09/02 11:36:29;;;;;;;12.82;6.57;;;19.70;72.60;;;;;;5090177;28;20439;-72
2021/09/02 11:39:05;;;;;;;10.02;5.90;;;19.70;72.40;;;;;;5075812;28;20105;-70
2021/09/02 11:41:31;;;;;;;12.10;6.45;;;19.70;72.30;;;;;;5058235;28;20509;-73
2021/09/02 11:43:57;;;;;;;10.45;6.35;;;19.70;72.20;;;;;;5076562;28;20064;-71
2021/09/02 11:46:23;;;;;;;15.30;6.45;;;19.60;72.00;;;;;;5076365;28;20049;-70
2021/09/02 11:48:58;;;;;;;20.30;6.25;;;19.60;72.00;;;;;;5076217;28;20102;-71
2021/09/02 11:51:27;;;;;;;11.82;5.78;;;19.60;71.90;;;;;;5075903;28;20048;-68
2021/09/02 11:54:09;;;;;;;16.25;6.95;;;19.60;71.80;;;;;;5076115;28;20036;-71
2021/09/02 11:56:37;;;;;;;15.50;6.28;;;19.70;72.00;;;;;;5076481;28;20119;-70
2021/09/02 11:59:05;;;;;;;19.90;6.82;;;19.70;72.10;;;;;;5058411;28;20048;-71
2021/09/02 12:01:31;;;;;;;15.35;6.70;;;19.60;72.20;;;;;;5075816;28;20071;-68
2021/09/02 12:03:57;;;;;;;18.95;6.75;;;19.60;72.40;;;;;;5075571;28;20048;-70
2021/09/02 12:06:28;;;;;;;22.08;6.88;;;19.60;72.30;;;;;;5075969;28;20432;-71
2021/09/02 12:08:56;;;;;;;16.40;6.32;;;19.70;72.20;;;;;;5075880;28;20062;-70
2021/09/02 12:11:23;;;;;;;15.52;5.57;;;19.70;72.50;;;;;;5075451;28;20424;-70
2021/09/02 12:13:48;;;;;;;12.68;6.50;;;19.70;73.00;;;;;;5076106;28;20090;-72
2021/09/02 12:16:16;;;;;;;18.40;6.20;;;19.60;73.20;;;;;;5075554;28;20083;-72
2021/09/02 12:18:45;;;;;;;12.90;5.60;;;19.60;73.20;;;;;;5075851;28;20048;-71
2021/09/02 12:21:12;;;;;;;10.85;5.85;;;19.60;73.50;;;;;;5075367;28;20456;-71
2021/09/02 12:24:06;;;;;;;13.48;5.93;;;19.70;73.80;;;;;;5058458;28;20119;-72
2021/09/02 12:26:54;;;;;;;10.85;5.85;;;19.60;73.80;;;;;;5075615;28;20344;-71
2021/09/02 12:29:22;;;;;;;16.38;6.13;;;19.70;74.10;;;;;;5075776;28;20051;-72
2021/09/02 12:31:50;;;;;;;18.02;6.00;;;19.70;74.10;;;;;;5075431;28;20044;-72
2021/09/02 12:34:19;;;;;;;11.80;6.05;;;19.70;74.10;;;;;;5075118;28;20440;-73
2021/09/02 12:37:06;;;;;;;17.27;7.40;;;19.70;74.10;;;;;;5075045;28;20044;-70
2021/09/02 12:39:36;;;;;;;10.23;6.28;;;19.70;74.10;;;;;;5075189;28;20057;-71
2021/09/02 12:42:04;;;;;;;11.35;6.03;;;19.70;74.10;;;;;;5075340;28;20063;-70